createdAt,value
2022-08-17T00:00:43.055Z,83.31
2022-08-17T00:01:40.905Z,83.51
2022-08-17T00:02:41.150Z,83.72
2022-08-17T00:03:33.546Z,83.92
2022-08-17T00:04:33.508Z,83.82
2022-08-17T00:05:33.498Z,83.82
2022-08-17T00:06:33.480Z,83.51
2022-08-17T00:07:33.469Z,83.51
2022-08-17T00:08:33.456Z,83.41
2022-08-17T00:09:33.472Z,83.41
2022-08-17T00:10:33.443Z,83.41
2022-08-17T00:11:33.431Z,83.41
2022-08-17T00:12:43.645Z,83.61
2022-08-17T00:13:33.419Z,83.61
2022-08-17T00:14:33.391Z,83.51
2022-08-17T00:15:33.402Z,83.61
2022-08-17T00:16:50.987Z,84.22
2022-08-17T00:17:33.386Z,84.36
2022-08-17T00:19:01.366Z,84.36
2022-08-17T00:19:33.379Z,84.47
2022-08-17T00:20:34.881Z,84.36
2022-08-17T00:21:56.446Z,84.47
2022-08-17T00:22:38.060Z,84.77
2022-08-17T00:23:33.298Z,84.87
2022-08-17T00:24:33.285Z,84.97
2022-08-17T00:25:33.311Z,84.97
2022-08-17T00:26:43.593Z,84.67
2022-08-17T00:27:33.284Z,84.36
2022-08-17T00:28:33.431Z,84.27
2022-08-17T00:29:33.295Z,84.56
2022-08-17T00:30:53.033Z,84.47
2022-08-17T00:31:33.220Z,84.33
2022-08-17T00:33:11.902Z,84.16
2022-08-17T00:33:33.201Z,84.36
2022-08-17T00:34:33.180Z,84.77
2022-08-17T00:35:33.179Z,85.27
2022-08-17T00:36:33.176Z,85.48
2022-08-17T00:37:33.170Z,85.38
2022-08-17T00:38:33.137Z,85.58
2022-08-17T00:39:33.177Z,85.72
2022-08-17T00:40:40.008Z,85.58
2022-08-17T00:41:33.139Z,85.48
2022-08-17T00:42:33.097Z,85.27
2022-08-17T00:43:34.092Z,85.38
2022-08-17T00:44:33.077Z,85.72
2022-08-17T00:45:33.066Z,85.82
2022-08-17T00:46:33.056Z,86.02
2022-08-17T00:47:33.075Z,86.53
2022-08-17T00:48:33.043Z,86.68
2022-08-17T00:49:33.026Z,86.88
2022-08-17T00:50:33.009Z,86.88
2022-08-17T00:51:33.010Z,86.68
2022-08-17T00:52:32.994Z,86.43
2022-08-17T00:53:33.007Z,86.53
2022-08-17T00:54:32.976Z,86.73
2022-08-17T00:55:32.970Z,86.88
2022-08-17T00:56:32.947Z,86.83
2022-08-17T00:57:32.946Z,86.63
2022-08-17T00:58:36.115Z,86.43
2022-08-17T00:59:32.945Z,86.43
2022-08-17T01:00:32.910Z,86.43
2022-08-17T01:01:32.973Z,86.53
2022-08-17T01:02:34.923Z,86.63
2022-08-17T01:03:32.884Z,86.43
2022-08-17T01:04:32.862Z,86.43
2022-08-17T01:05:32.885Z,86.73
2022-08-17T01:06:32.842Z,86.98
2022-08-17T01:07:32.831Z,86.88
2022-08-17T01:08:32.816Z,86.57
2022-08-17T01:09:32.815Z,86.68
2022-08-17T01:10:59.305Z,86.57
2022-08-17T01:11:32.810Z,86.73
2022-08-17T01:12:32.799Z,86.73
2022-08-17T01:13:36.766Z,86.43
2022-08-17T01:14:32.769Z,86.33
2022-08-17T01:15:32.774Z,86.02
2022-08-17T01:16:32.738Z,86.33
2022-08-17T01:17:32.733Z,86.43
2022-08-17T01:18:32.719Z,86.88
2022-08-17T01:19:32.705Z,86.77
2022-08-17T01:20:41.851Z,87.08
2022-08-17T01:21:32.718Z,87.38
2022-08-17T01:22:32.678Z,87.18
2022-08-17T01:23:32.665Z,87.79
2022-08-17T01:24:33.756Z,87.89
2022-08-17T01:25:32.645Z,87.89
2022-08-17T01:26:32.628Z,88.09
2022-08-17T01:27:32.646Z,87.79
2022-08-17T01:28:53.227Z,87.48
2022-08-17T01:29:32.610Z,87.59
2022-08-17T01:30:56.814Z,87.59
2022-08-17T01:31:32.589Z,87.89
2022-08-17T01:32:32.566Z,87.89
2022-08-17T01:33:32.580Z,87.99
2022-08-17T01:34:42.299Z,87.59
2022-08-17T01:35:32.547Z,87.69
2022-08-17T01:36:32.524Z,87.79
2022-08-17T01:37:32.513Z,87.89
2022-08-17T01:38:32.529Z,87.79
2022-08-17T01:39:32.539Z,87.59
2022-08-17T01:40:32.481Z,87.38
2022-08-17T01:41:32.480Z,87.38
2022-08-17T01:42:32.460Z,87.48
2022-08-17T01:43:32.454Z,87.38
2022-08-17T01:44:32.496Z,87.38
2022-08-17T01:45:32.434Z,87.38
2022-08-17T01:46:32.419Z,87.48
2022-08-17T01:47:32.444Z,87.38
2022-08-17T01:48:32.398Z,87.48
2022-08-17T01:49:32.393Z,87.38
2022-08-17T01:50:32.399Z,87.48
2022-08-17T01:51:32.394Z,87.79
2022-08-17T01:52:32.354Z,88.23
2022-08-17T01:53:32.354Z,88.23
2022-08-17T01:54:32.331Z,88.34
2022-08-17T01:55:32.331Z,88.34
2022-08-17T01:56:32.317Z,88.44
2022-08-17T01:57:32.324Z,88.34
2022-08-17T01:58:32.291Z,88.54
2022-08-17T01:59:32.286Z,88.44
2022-08-17T02:00:46.697Z,88.64
2022-08-17T02:01:32.402Z,88.64
2022-08-17T02:02:32.247Z,88.84
2022-08-17T02:03:32.258Z,88.64
2022-08-17T02:04:32.227Z,88.23
2022-08-17T02:05:32.231Z,88.34
2022-08-17T02:06:45.215Z,88.23
2022-08-17T02:07:32.200Z,88.34
2022-08-17T02:08:38.969Z,88.64
2022-08-17T02:09:32.205Z,88.54
2022-08-17T02:10:33.735Z,88.64
2022-08-17T02:11:32.287Z,88.64
2022-08-17T02:12:37.733Z,88.84
2022-08-17T02:13:32.166Z,89.15
2022-08-17T02:14:32.123Z,89.04
2022-08-17T02:15:32.159Z,88.95
2022-08-17T02:16:37.611Z,88.95
2022-08-17T02:17:32.099Z,89.35
2022-08-17T02:18:32.078Z,89.80
2022-08-17T02:19:32.094Z,90.00
2022-08-17T02:20:42.657Z,90.11
2022-08-17T02:21:32.076Z,90.00
2022-08-17T02:22:32.035Z,89.70
2022-08-17T02:23:32.052Z,89.59
2022-08-17T02:24:58.170Z,89.70
2022-08-17T02:25:32.014Z,90.11
2022-08-17T02:26:31.992Z,90.31
2022-08-17T02:27:31.990Z,90.61
2022-08-17T02:28:31.973Z,90.61
2022-08-17T02:29:31.984Z,90.31
2022-08-17T02:31:02.293Z,90.31
2022-08-17T02:31:31.953Z,90.11
2022-08-17T02:32:31.930Z,90.20
2022-08-17T02:33:42.082Z,90.31
2022-08-17T02:34:31.913Z,90.41
2022-08-17T02:35:31.926Z,90.31
2022-08-17T02:36:31.895Z,90.51
2022-08-17T02:37:31.884Z,90.61
2022-08-17T02:38:31.866Z,90.51
2022-08-17T02:39:31.919Z,90.71
2022-08-17T02:40:36.093Z,90.61
2022-08-17T02:41:31.855Z,90.61
2022-08-17T02:42:31.842Z,90.61
2022-08-17T02:43:31.820Z,90.51
2022-08-17T02:44:38.712Z,90.11
2022-08-17T02:45:31.799Z,89.39
2022-08-17T02:46:31.813Z,89.50
2022-08-17T02:47:31.803Z,89.70
2022-08-17T02:48:32.128Z,90.11
2022-08-17T02:49:31.750Z,89.80
2022-08-17T02:50:31.737Z,90.11
2022-08-17T02:51:31.731Z,90.41
2022-08-17T02:52:53.402Z,90.51
2022-08-17T02:53:35.565Z,90.61
2022-08-17T02:54:40.871Z,90.61
2022-08-17T02:55:31.694Z,90.92
2022-08-17T02:56:31.678Z,90.61
2022-08-17T02:57:31.665Z,90.41
2022-08-17T02:58:35.032Z,90.41
2022-08-17T02:59:31.659Z,90.41
2022-08-17T03:00:31.638Z,90.61
2022-08-17T03:01:31.676Z,90.81
2022-08-17T03:02:31.612Z,90.92
2022-08-17T03:03:31.651Z,90.71
2022-08-17T03:04:31.589Z,90.71
2022-08-17T03:05:31.589Z,91.02
2022-08-17T03:06:31.572Z,90.92
2022-08-17T03:07:31.567Z,91.12
2022-08-17T03:08:31.552Z,91.32
2022-08-17T03:09:31.604Z,91.02
2022-08-17T03:10:31.526Z,90.81
2022-08-17T03:11:31.517Z,90.51
2022-08-17T03:12:31.506Z,90.41
2022-08-17T03:13:31.498Z,90.51
2022-08-17T03:14:31.488Z,90.61
2022-08-17T03:15:31.518Z,90.41
2022-08-17T03:16:31.462Z,90.31
2022-08-17T03:17:31.455Z,90.41
2022-08-17T03:18:31.445Z,90.31
2022-08-17T03:19:31.440Z,90.11
2022-08-17T03:20:31.421Z,90.11
2022-08-17T03:21:31.435Z,90.00
2022-08-17T03:22:36.557Z,90.00
2022-08-17T03:23:31.404Z,90.11
2022-08-17T03:24:31.380Z,90.11
2022-08-17T03:25:31.371Z,90.41
2022-08-17T03:26:31.360Z,90.71
2022-08-17T03:27:31.376Z,90.81
2022-08-17T03:28:31.375Z,90.96
2022-08-17T03:29:31.330Z,90.96
2022-08-17T03:30:31.314Z,90.96
2022-08-17T03:31:31.362Z,90.96
2022-08-17T03:32:31.295Z,90.86
2022-08-17T03:33:31.299Z,90.61
2022-08-17T03:34:31.281Z,90.51
2022-08-17T03:35:31.270Z,90.61
2022-08-17T03:36:31.258Z,90.61
2022-08-17T03:37:31.274Z,90.61
2022-08-17T03:38:39.081Z,90.51
2022-08-17T03:39:31.267Z,90.51
2022-08-17T03:40:41.083Z,90.71
2022-08-17T03:41:31.151Z,90.96
2022-08-17T03:42:32.815Z,91.16
2022-08-17T03:43:31.178Z,91.26
2022-08-17T03:44:31.113Z,91.36
2022-08-17T03:45:31.105Z,91.36
2022-08-17T03:46:34.155Z,91.06
2022-08-17T03:47:31.140Z,91.06
2022-08-17T03:48:31.110Z,91.47
2022-08-17T03:49:31.111Z,91.67
2022-08-17T03:50:31.093Z,91.36
2022-08-17T03:51:33.437Z,91.36
2022-08-17T03:52:31.037Z,91.36
2022-08-17T03:53:31.036Z,91.56
2022-08-17T03:54:31.052Z,91.47
2022-08-17T03:55:36.066Z,91.36
2022-08-17T03:56:31.029Z,91.26
2022-08-17T03:57:31.017Z,91.26
2022-08-17T03:58:30.966Z,91.26
2022-08-17T03:59:31.015Z,91.26
2022-08-17T04:00:31.130Z,91.26
2022-08-17T04:01:30.999Z,91.26
2022-08-17T04:02:30.922Z,91.36
2022-08-17T04:03:30.935Z,91.06
2022-08-17T04:04:30.902Z,91.16
2022-08-17T04:05:30.925Z,91.06
2022-08-17T04:06:30.877Z,91.16
2022-08-17T04:07:30.881Z,91.16
2022-08-17T04:08:30.857Z,91.06
2022-08-17T04:09:30.879Z,91.02
2022-08-17T04:10:30.893Z,90.71
2022-08-17T04:11:30.835Z,90.61
2022-08-17T04:12:31.310Z,90.41
2022-08-17T04:13:30.810Z,90.51
2022-08-17T04:14:30.797Z,90.51
2022-08-17T04:15:30.788Z,90.51
2022-08-17T04:16:30.796Z,90.96
2022-08-17T04:17:30.774Z,91.16
2022-08-17T04:18:30.758Z,91.26
2022-08-17T04:19:30.743Z,91.36
2022-08-17T04:20:30.729Z,91.36
2022-08-17T04:21:30.729Z,91.36
2022-08-17T04:22:34.258Z,91.16
2022-08-17T04:23:30.707Z,91.02
2022-08-17T04:24:30.687Z,90.92
2022-08-17T04:25:30.691Z,90.81
2022-08-17T04:26:53.872Z,90.81
2022-08-17T04:27:30.696Z,90.71
2022-08-17T04:28:30.691Z,90.81
2022-08-17T04:29:50.881Z,90.92
2022-08-17T04:30:30.641Z,90.81
2022-08-17T04:31:30.615Z,90.71
2022-08-17T04:33:04.290Z,90.81
2022-08-17T04:33:30.614Z,90.92
2022-08-17T04:34:30.595Z,90.92
2022-08-17T04:35:30.571Z,90.92
2022-08-17T04:36:30.565Z,90.61
2022-08-17T04:37:30.560Z,90.51
2022-08-17T04:38:30.543Z,90.51
2022-08-17T04:39:30.574Z,90.41
2022-08-17T04:40:30.602Z,90.41
2022-08-17T04:41:30.511Z,90.51
2022-08-17T04:42:30.500Z,90.31
2022-08-17T04:43:30.519Z,90.20
2022-08-17T04:44:37.720Z,90.06
2022-08-17T04:45:31.976Z,90.06
2022-08-17T04:46:30.459Z,89.96
2022-08-17T04:47:30.453Z,89.76
2022-08-17T04:48:36.381Z,89.96
2022-08-17T04:49:30.457Z,89.86
2022-08-17T04:50:30.425Z,89.86
2022-08-17T04:51:30.408Z,89.96
2022-08-17T04:52:43.466Z,89.65
2022-08-17T04:53:30.399Z,89.55
2022-08-17T04:54:30.377Z,89.55
2022-08-17T04:55:30.383Z,89.31
2022-08-17T04:56:30.374Z,89.41
2022-08-17T04:57:30.342Z,89.11
2022-08-17T04:58:30.338Z,89.11
2022-08-17T04:59:30.341Z,89.01
2022-08-17T05:00:30.341Z,88.76
2022-08-17T05:01:30.363Z,88.46
2022-08-17T05:02:30.308Z,88.25
2022-08-17T05:03:30.286Z,88.05
2022-08-17T05:04:34.188Z,87.85
2022-08-17T05:05:30.268Z,87.74
2022-08-17T05:06:30.264Z,87.71
2022-08-17T05:07:31.703Z,87.91
2022-08-17T05:08:30.224Z,87.81
2022-08-17T05:09:30.232Z,87.20
2022-08-17T05:10:30.201Z,87.00
2022-08-17T05:11:30.278Z,86.76
2022-08-17T05:12:30.188Z,87.16
2022-08-17T05:13:30.174Z,87.26
2022-08-17T05:14:33.356Z,87.26
2022-08-17T05:15:33.134Z,87.32
2022-08-17T05:16:30.147Z,86.91
2022-08-17T05:17:30.159Z,86.51
2022-08-17T05:18:30.120Z,86.21
2022-08-17T05:19:30.101Z,86.16
2022-08-17T05:20:30.101Z,85.66
2022-08-17T05:21:30.090Z,85.76
2022-08-17T05:22:30.078Z,85.25
2022-08-17T05:23:41.658Z,84.65
2022-08-17T05:24:42.756Z,84.34
2022-08-17T05:25:30.491Z,84.65
2022-08-17T05:26:30.035Z,84.34
2022-08-17T05:27:35.273Z,85.05
2022-08-17T05:28:30.028Z,85.11
2022-08-17T05:29:33.573Z,85.02
2022-08-17T05:30:30.001Z,84.91
2022-08-17T05:31:29.989Z,84.91
2022-08-17T05:32:38.457Z,83.90
2022-08-17T05:33:29.969Z,84.11
2022-08-17T05:34:29.970Z,84.27
2022-08-17T05:35:29.936Z,84.67
2022-08-17T05:36:41.657Z,84.47
2022-08-17T05:37:29.927Z,84.97
2022-08-17T05:38:29.912Z,84.47
2022-08-17T05:39:29.999Z,83.66
2022-08-17T05:40:32.628Z,83.42
2022-08-17T05:41:29.873Z,82.81
2022-08-17T05:42:29.875Z,83.22
2022-08-17T05:43:29.851Z,83.62
2022-08-17T05:44:29.854Z,82.78
2022-08-17T05:45:55.957Z,82.07
2022-08-17T05:46:29.828Z,82.64
2022-08-17T05:47:29.807Z,81.73
2022-08-17T05:48:35.658Z,81.32
2022-08-17T05:49:29.820Z,80.78
2022-08-17T05:50:30.025Z,80.58
2022-08-17T05:51:29.822Z,80.88
2022-08-17T05:52:29.766Z,79.27
2022-08-17T05:53:29.745Z,80.64
2022-08-17T05:54:29.771Z,80.44
2022-08-17T05:55:29.730Z,79.93
2022-08-17T05:56:30.650Z,79.53
2022-08-17T05:57:29.702Z,78.99
2022-08-17T05:58:29.696Z,78.49
2022-08-17T05:59:29.679Z,79.39
2022-08-17T06:00:30.246Z,78.79
2022-08-17T06:01:29.728Z,77.98
2022-08-17T06:02:29.757Z,78.08
2022-08-17T06:03:29.641Z,78.49
2022-08-17T06:04:29.670Z,78.49
2022-08-17T06:05:29.635Z,78.19
2022-08-17T06:06:31.531Z,77.17
2022-08-17T06:07:29.622Z,77.48
2022-08-17T06:08:29.592Z,77.17
2022-08-17T06:09:33.640Z,77.28
2022-08-17T06:10:29.589Z,77.48
2022-08-17T06:11:29.570Z,77.88
2022-08-17T06:12:29.543Z,77.55
2022-08-17T06:13:29.546Z,76.74
2022-08-17T06:14:29.525Z,76.74
2022-08-17T06:15:29.521Z,76.20
2022-08-17T06:16:34.375Z,76.10
2022-08-17T06:17:29.592Z,75.79
2022-08-17T06:18:29.481Z,75.56
2022-08-17T06:19:29.525Z,74.65
2022-08-17T06:20:30.341Z,74.32
2022-08-17T06:21:32.000Z,74.32
2022-08-17T06:22:29.525Z,73.41
2022-08-17T06:23:29.436Z,73.58
2022-08-17T06:24:29.435Z,73.47
2022-08-17T06:25:29.418Z,72.37
2022-08-17T06:26:30.426Z,72.67
2022-08-17T06:27:29.388Z,72.74
2022-08-17T06:28:29.385Z,71.83
2022-08-17T06:29:29.359Z,72.03
2022-08-17T06:30:29.366Z,71.43
2022-08-17T06:31:29.363Z,72.10
2022-08-17T06:32:29.359Z,71.09
2022-08-17T06:33:29.351Z,72.40
2022-08-17T06:34:29.315Z,72.27
2022-08-17T06:35:31.942Z,70.66
2022-08-17T06:36:29.300Z,71.47
2022-08-17T06:37:29.282Z,72.17
2022-08-17T06:38:37.746Z,72.67
2022-08-17T06:39:29.482Z,72.06
2022-08-17T06:40:29.257Z,71.77
2022-08-17T06:41:29.232Z,72.56
2022-08-17T06:43:02.269Z,72.27
2022-08-17T06:43:29.218Z,72.47
2022-08-17T06:44:49.804Z,71.73
2022-08-17T06:45:29.198Z,71.43
2022-08-17T06:46:29.211Z,71.43
2022-08-17T06:47:29.373Z,70.83
2022-08-17T06:48:29.168Z,71.59
2022-08-17T06:49:29.183Z,71.50
2022-08-17T06:50:29.141Z,71.56
2022-08-17T06:51:29.129Z,70.46
2022-08-17T06:52:45.650Z,69.86
2022-08-17T06:53:29.114Z,69.26
2022-08-17T06:54:29.099Z,68.42
2022-08-17T06:55:31.241Z,68.76
2022-08-17T06:56:53.425Z,69.12
2022-08-17T06:57:29.089Z,68.52
2022-08-17T06:58:29.849Z,67.92
2022-08-17T06:59:35.682Z,68.22
2022-08-17T07:00:29.117Z,68.42
2022-08-17T07:01:29.117Z,67.19
2022-08-17T07:02:50.883Z,67.89
2022-08-17T07:03:29.037Z,65.99
2022-08-17T07:04:29.001Z,65.99
2022-08-17T07:05:28.981Z,66.19
2022-08-17T07:06:29.001Z,66.59
2022-08-17T07:07:28.960Z,66.59
2022-08-17T07:08:32.024Z,64.89
2022-08-17T07:09:28.956Z,64.75
2022-08-17T07:10:28.932Z,65.55
2022-08-17T07:11:28.938Z,64.65
2022-08-17T07:12:28.903Z,65.52
2022-08-17T07:13:28.885Z,64.62
2022-08-17T07:14:28.880Z,65.12
2022-08-17T07:15:28.862Z,65.42
2022-08-17T07:16:28.874Z,64.59
2022-08-17T07:17:46.857Z,64.89
2022-08-17T07:18:28.843Z,63.49
2022-08-17T07:19:28.832Z,64.09
2022-08-17T07:20:28.820Z,64.39
2022-08-17T07:21:28.844Z,63.79
2022-08-17T07:22:28.815Z,63.46
2022-08-17T07:23:28.789Z,63.96
2022-08-17T07:24:30.026Z,63.26
2022-08-17T07:25:28.758Z,62.34
2022-08-17T07:26:28.784Z,62.34
2022-08-17T07:27:28.770Z,62.34
2022-08-17T07:28:28.731Z,62.13
2022-08-17T07:29:28.748Z,62.20
2022-08-17T07:30:28.733Z,61.21
2022-08-17T07:31:28.695Z,61.80
2022-08-17T07:32:28.811Z,60.50
2022-08-17T07:33:28.681Z,59.68
2022-08-17T07:34:29.266Z,60.48
2022-08-17T07:35:31.397Z,59.88
2022-08-17T07:36:30.212Z,60.38
2022-08-17T07:37:28.628Z,59.68
2022-08-17T07:38:28.740Z,59.58
2022-08-17T07:39:28.655Z,59.65
2022-08-17T07:40:28.690Z,59.65
2022-08-17T07:41:53.367Z,58.45
2022-08-17T07:42:28.588Z,58.75
2022-08-17T07:43:29.590Z,59.35
2022-08-17T07:44:28.575Z,59.45
2022-08-17T07:45:28.567Z,58.92
2022-08-17T07:46:28.579Z,58.12
2022-08-17T07:47:28.538Z,58.23
2022-08-17T07:48:28.529Z,58.03
2022-08-17T07:49:28.514Z,58.00
2022-08-17T07:50:28.562Z,57.10
2022-08-17T07:51:28.777Z,56.40
2022-08-17T07:52:48.292Z,56.70
2022-08-17T07:53:28.476Z,57.30
2022-08-17T07:54:28.487Z,57.97
2022-08-17T07:55:28.439Z,56.98
2022-08-17T07:56:28.455Z,56.77
2022-08-17T07:57:30.077Z,56.95
2022-08-17T07:58:28.413Z,57.45
2022-08-17T07:59:28.642Z,56.45
2022-08-17T08:00:32.443Z,55.93
2022-08-17T08:01:41.911Z,56.52
2022-08-17T08:02:31.766Z,56.02
2022-08-17T08:03:28.575Z,56.12
2022-08-17T08:05:49.428Z,56.12
2022-08-17T08:06:28.334Z,55.53
2022-08-17T08:07:28.376Z,56.20
2022-08-17T08:08:28.359Z,56.30
2022-08-17T08:09:28.297Z,56.20
2022-08-17T08:10:28.286Z,56.30
2022-08-17T08:11:28.314Z,56.49
2022-08-17T08:12:28.964Z,55.80
2022-08-17T08:13:28.260Z,56.40
2022-08-17T08:14:28.874Z,56.49
2022-08-17T08:15:28.259Z,55.50
2022-08-17T08:16:28.231Z,56.49
2022-08-17T08:17:28.226Z,56.67
2022-08-17T08:18:45.927Z,56.37
2022-08-17T08:19:28.191Z,55.38
2022-08-17T08:20:52.622Z,56.87
2022-08-17T08:21:28.179Z,56.67
2022-08-17T08:22:28.162Z,56.67
2022-08-17T08:23:28.154Z,56.27
2022-08-17T08:24:30.933Z,55.85
2022-08-17T08:25:28.835Z,55.35
2022-08-17T08:26:28.139Z,55.35
2022-08-17T08:27:28.103Z,54.16
2022-08-17T08:28:28.100Z,54.65
2022-08-17T08:29:28.082Z,54.35
2022-08-17T08:30:28.113Z,55.91
2022-08-17T08:31:28.059Z,54.82
2022-08-17T08:32:28.054Z,54.03
2022-08-17T08:33:28.064Z,53.83
2022-08-17T08:34:45.012Z,53.53
2022-08-17T08:35:28.060Z,54.10
2022-08-17T08:36:59.293Z,53.78
2022-08-17T08:37:35.594Z,52.89
2022-08-17T08:38:28.200Z,53.19
2022-08-17T08:39:28.018Z,52.47
2022-08-17T08:40:27.972Z,52.07
2022-08-17T08:41:27.973Z,50.36
2022-08-17T08:42:27.973Z,50.18
2022-08-17T08:43:27.986Z,50.88
2022-08-17T08:45:00.585Z,51.18
2022-08-17T08:45:27.956Z,51.18
2022-08-17T08:46:27.941Z,52.17
2022-08-17T08:47:27.917Z,52.26
2022-08-17T08:48:53.305Z,52.26
2022-08-17T08:49:59.017Z,51.37
2022-08-17T08:50:37.437Z,51.77
2022-08-17T08:51:27.865Z,51.84
2022-08-17T08:52:27.892Z,51.84
2022-08-17T08:53:27.879Z,50.65
2022-08-17T08:54:27.833Z,50.43
2022-08-17T08:55:27.825Z,49.64
2022-08-17T08:56:27.817Z,49.54
2022-08-17T08:57:33.405Z,49.64
2022-08-17T08:58:31.510Z,49.84
2022-08-17T08:59:27.790Z,50.34
2022-08-17T09:00:27.774Z,51.12
2022-08-17T09:01:27.797Z,51.23
2022-08-17T09:02:27.750Z,49.91
2022-08-17T09:03:51.212Z,49.22
2022-08-17T09:04:27.761Z,50.51
2022-08-17T09:05:27.729Z,49.71
2022-08-17T09:06:37.829Z,50.01
2022-08-17T09:07:27.694Z,49.29
2022-08-17T09:08:27.680Z,49.40
2022-08-17T09:09:27.723Z,48.21
2022-08-17T09:10:27.665Z,46.23
2022-08-17T09:11:27.880Z,45.90
2022-08-17T09:12:27.629Z,47.59
2022-08-17T09:13:27.625Z,46.38
2022-08-17T09:14:28.210Z,45.86
2022-08-17T09:15:27.742Z,42.99
2022-08-17T09:16:27.612Z,43.19
2022-08-17T09:17:27.584Z,42.50
2022-08-17T09:19:00.640Z,43.02
2022-08-17T09:19:27.613Z,42.52
2022-08-17T09:20:28.700Z,43.13
2022-08-17T09:21:27.546Z,43.53
2022-08-17T09:22:27.554Z,43.53
2022-08-17T09:23:27.519Z,43.63
2022-08-17T09:24:27.536Z,43.04
2022-08-17T09:25:27.491Z,43.71
2022-08-17T09:26:27.510Z,43.02
2022-08-17T09:27:27.477Z,44.31
2022-08-17T09:28:27.458Z,42.70
2022-08-17T09:29:27.463Z,42.90
2022-08-17T09:30:27.430Z,41.31
2022-08-17T09:31:32.738Z,41.91
2022-08-17T09:32:27.435Z,45.86
2022-08-17T09:33:27.407Z,42.88
2022-08-17T09:34:32.099Z,42.07
2022-08-17T09:35:34.865Z,42.46
2022-08-17T09:36:27.379Z,43.73
2022-08-17T09:37:27.381Z,41.55
2022-08-17T09:38:32.140Z,40.88
2022-08-17T09:39:27.441Z,41.87
2022-08-17T09:40:27.338Z,42.07
2022-08-17T09:41:27.321Z,41.77
2022-08-17T09:42:27.316Z,42.66
2022-08-17T09:43:27.323Z,41.38
2022-08-17T09:44:27.294Z,42.48
2022-08-17T09:45:27.276Z,42.48
2022-08-17T09:46:27.260Z,43.37
2022-08-17T09:47:27.274Z,43.07
2022-08-17T09:48:27.446Z,43.07
2022-08-17T09:49:27.271Z,42.88
2022-08-17T09:51:03.747Z,42.48
2022-08-17T09:51:27.218Z,42.19
2022-08-17T09:52:27.197Z,42.01
2022-08-17T09:53:27.225Z,41.91
2022-08-17T09:54:42.525Z,42.21
2022-08-17T09:55:27.229Z,42.30
2022-08-17T09:56:27.199Z,43.98
2022-08-17T09:57:31.821Z,43.49
2022-08-17T09:58:29.212Z,43.88
2022-08-17T09:59:27.161Z,43.17
2022-08-17T10:00:27.120Z,42.29
2022-08-17T10:01:27.174Z,42.29
2022-08-17T10:02:27.088Z,41.91
2022-08-17T10:03:27.091Z,42.70
2022-08-17T10:04:29.606Z,42.88
2022-08-17T10:05:27.082Z,41.79
2022-08-17T10:06:27.049Z,42.11
2022-08-17T10:07:27.044Z,42.50
2022-08-17T10:08:27.033Z,42.21
2022-08-17T10:09:27.017Z,43.02
2022-08-17T10:10:27.025Z,42.32
2022-08-17T10:11:33.566Z,42.32
2022-08-17T10:12:29.743Z,42.82
2022-08-17T10:13:26.986Z,43.80
2022-08-17T10:14:37.282Z,43.88
2022-08-17T10:15:26.971Z,43.88
2022-08-17T10:16:26.987Z,43.29
2022-08-17T10:17:26.952Z,42.40
2022-08-17T10:18:33.128Z,42.90
2022-08-17T10:19:26.930Z,42.70
2022-08-17T10:20:26.920Z,42.90
2022-08-17T10:21:26.924Z,42.60
2022-08-17T10:22:35.289Z,42.03
2022-08-17T10:23:26.880Z,41.83
2022-08-17T10:24:26.870Z,42.72
2022-08-17T10:25:42.612Z,42.92
2022-08-17T10:26:26.846Z,42.43
2022-08-17T10:27:26.883Z,43.21
2022-08-17T10:28:29.705Z,43.51
2022-08-17T10:29:26.815Z,42.43
2022-08-17T10:30:26.803Z,42.62
2022-08-17T10:31:35.411Z,43.61
2022-08-17T10:32:26.787Z,42.50
2022-08-17T10:33:26.797Z,42.11
2022-08-17T10:34:26.771Z,41.81
2022-08-17T10:35:26.753Z,42.01
2022-08-17T10:36:26.751Z,41.71
2022-08-17T10:37:26.759Z,42.40
2022-08-17T10:38:26.744Z,41.89
2022-08-17T10:39:26.871Z,41.99
2022-08-17T10:40:26.787Z,43.07
2022-08-17T10:41:26.694Z,41.20
2022-08-17T10:42:30.393Z,41.79
2022-08-17T10:43:26.679Z,42.58
2022-08-17T10:44:38.631Z,42.48
2022-08-17T10:45:26.657Z,43.45
2022-08-17T10:46:31.113Z,41.77
2022-08-17T10:47:26.638Z,41.38
2022-08-17T10:48:26.629Z,40.69
2022-08-17T10:49:26.621Z,40.88
2022-08-17T10:50:26.621Z,41.20
2022-08-17T10:51:26.592Z,41.20
2022-08-17T10:52:26.602Z,41.89
2022-08-17T10:53:26.575Z,41.59
2022-08-17T10:54:26.573Z,41.99
2022-08-17T10:55:26.552Z,41.99
2022-08-17T10:56:26.537Z,42.26
2022-08-17T10:57:26.560Z,40.70
2022-08-17T10:58:27.078Z,41.10
2022-08-17T10:59:26.514Z,41.99
2022-08-17T11:00:27.757Z,40.48
2022-08-17T11:01:26.505Z,41.28
2022-08-17T11:02:26.485Z,40.78
2022-08-17T11:03:26.501Z,40.66
2022-08-17T11:04:26.456Z,40.37
2022-08-17T11:05:26.455Z,41.25
2022-08-17T11:06:26.453Z,39.87
2022-08-17T11:07:26.434Z,39.97
2022-08-17T11:08:26.457Z,39.87
2022-08-17T11:09:26.402Z,40.27
2022-08-17T11:10:26.398Z,40.37
2022-08-17T11:11:26.388Z,39.68
2022-08-17T11:12:26.398Z,39.99
2022-08-17T11:13:26.362Z,39.70
2022-08-17T11:14:26.401Z,39.89
2022-08-17T11:15:26.347Z,40.31
2022-08-17T11:16:26.338Z,41.20
2022-08-17T11:17:26.333Z,40.41
2022-08-17T11:18:26.312Z,40.70
2022-08-17T11:19:26.326Z,41.02
2022-08-17T11:20:26.287Z,40.62
2022-08-17T11:21:26.291Z,41.02
2022-08-17T11:22:31.285Z,42.78
2022-08-17T11:23:26.270Z,40.92
2022-08-17T11:24:26.258Z,40.13
2022-08-17T11:25:26.273Z,41.52
2022-08-17T11:26:26.388Z,41.41
2022-08-17T11:27:26.230Z,43.29
2022-08-17T11:28:26.214Z,40.42
2022-08-17T11:29:26.216Z,40.82
2022-08-17T11:30:26.636Z,40.42
2022-08-17T11:31:38.269Z,41.41
2022-08-17T11:32:26.182Z,40.92
2022-08-17T11:33:26.170Z,41.31
2022-08-17T11:34:26.145Z,40.92
2022-08-17T11:35:26.867Z,41.31
2022-08-17T11:36:26.150Z,41.22
2022-08-17T11:37:26.124Z,42.21
2022-08-17T11:38:26.102Z,41.31
2022-08-17T11:39:26.118Z,41.91
2022-08-17T11:40:26.118Z,41.22
2022-08-17T11:41:26.087Z,41.91
2022-08-17T11:42:26.113Z,41.52
2022-08-17T11:43:26.063Z,41.52
2022-08-17T11:44:26.072Z,41.71
2022-08-17T11:45:32.539Z,41.52
2022-08-17T11:46:26.025Z,41.31
2022-08-17T11:47:26.018Z,41.31
2022-08-17T11:48:28.348Z,41.91
2022-08-17T11:49:25.996Z,42.01
2022-08-17T11:50:27.987Z,41.81
2022-08-17T11:51:25.985Z,42.40
2022-08-17T11:52:25.960Z,43.49
2022-08-17T11:53:25.979Z,42.50
2022-08-17T11:54:34.387Z,42.80
2022-08-17T11:55:35.101Z,41.12
2022-08-17T11:56:25.947Z,41.61
2022-08-17T11:57:25.914Z,41.31
2022-08-17T11:58:25.904Z,41.41
2022-08-17T11:59:25.897Z,42.70
2022-08-17T12:00:25.877Z,41.41
2022-08-17T12:01:25.894Z,41.33
2022-08-17T12:02:25.882Z,41.63
2022-08-17T12:03:25.887Z,42.82
2022-08-17T12:04:25.881Z,42.43
2022-08-17T12:05:25.848Z,43.02
2022-08-17T12:06:30.588Z,41.83
2022-08-17T12:07:25.840Z,42.03
2022-08-17T12:08:25.808Z,43.12
2022-08-17T12:09:25.791Z,42.32
2022-08-17T12:10:25.788Z,42.13
2022-08-17T12:11:57.775Z,43.41
2022-08-17T12:12:25.782Z,43.71
2022-08-17T12:13:27.416Z,42.72
2022-08-17T12:14:45.022Z,43.41
2022-08-17T12:15:25.753Z,45.09
2022-08-17T12:16:25.713Z,43.41
2022-08-17T12:17:39.382Z,43.71
2022-08-17T12:18:25.741Z,43.24
2022-08-17T12:19:25.748Z,43.04
2022-08-17T12:20:25.676Z,42.35
2022-08-17T12:21:25.694Z,43.63
2022-08-17T12:22:25.655Z,43.43
2022-08-17T12:23:25.650Z,43.06
2022-08-17T12:24:25.645Z,43.06
2022-08-17T12:25:25.666Z,44.05
2022-08-17T12:26:25.655Z,43.95
2022-08-17T12:27:47.626Z,43.77
2022-08-17T12:28:25.598Z,43.67
2022-08-17T12:29:35.539Z,44.07
2022-08-17T12:30:25.638Z,43.57
2022-08-17T12:31:25.575Z,44.24
2022-08-17T12:32:25.554Z,46.52
2022-08-17T12:33:28.400Z,44.54
2022-08-17T12:34:25.562Z,44.84
2022-08-17T12:35:25.527Z,44.07
2022-08-17T12:36:25.550Z,43.57
2022-08-17T12:37:25.514Z,43.87
2022-08-17T12:38:28.159Z,43.77
2022-08-17T12:39:25.488Z,43.38
2022-08-17T12:40:25.487Z,43.67
2022-08-17T12:41:25.475Z,44.15
2022-08-17T12:42:25.464Z,43.16
2022-08-17T12:43:25.438Z,43.26
2022-08-17T12:44:25.430Z,42.36
2022-08-17T12:45:25.422Z,43.06
2022-08-17T12:46:25.713Z,42.74
2022-08-17T12:47:25.458Z,43.13
2022-08-17T12:48:25.381Z,42.32
2022-08-17T12:49:25.414Z,42.01
2022-08-17T12:50:28.477Z,41.81
2022-08-17T12:51:25.357Z,41.81
2022-08-17T12:52:25.398Z,41.22
2022-08-17T12:53:25.337Z,41.22